sensor_id;sensor_type;location;lat;lon;timestamp;P1;durP1;ratioP1;P2;durP2;ratioP2
27428;SDS011;14881;48.092;11.574;2023-06-22T00:00:45;7.75;;;4.53;;
27428;SDS011;14881;48.092;11.574;2023-06-22T00:03:12;8.75;;;4.70;;
27428;SDS011;14881;48.092;11.574;2023-06-22T00:05:39;11.20;;;5.20;;
27428;SDS011;14881;48.092;11.574;2023-06-22T00:08:06;10.90;;;4.95;;
27428;SDS011;14881;48.092;11.574;2023-06-22T00:10:32;9.63;;;5.50;;
27428;SDS011;14881;48.092;11.574;2023-06-22T00:12:59;9.95;;;5.03;;
27428;SDS011;14881;48.092;11.574;2023-06-22T00:15:25;10.35;;;4.90;;
27428;SDS011;14881;48.092;11.574;2023-06-22T00:17:52;15.00;;;5.20;;
27428;SDS011;14881;48.092;11.574;2023-06-22T00:20:18;8.35;;;4.80;;
27428;SDS011;14881;48.092;11.574;2023-06-22T00:22:45;9.43;;;4.63;;
27428;SDS011;14881;48.092;11.574;2023-06-22T00:25:13;9.77;;;4.40;;
27428;SDS011;14881;48.092;11.574;2023-06-22T00:27:40;9.20;;;4.70;;
27428;SDS011;14881;48.092;11.574;2023-06-22T00:30:07;12.88;;;5.20;;
27428;SDS011;14881;48.092;11.574;2023-06-22T00:32:34;6.47;;;4.60;;
27428;SDS011;14881;48.092;11.574;2023-06-22T00:35:00;6.88;;;4.32;;
27428;SDS011;14881;48.092;11.574;2023-06-22T00:37:27;8.10;;;4.95;;
27428;SDS011;14881;48.092;11.574;2023-06-22T00:39:55;7.22;;;4.75;;
27428;SDS011;14881;48.092;11.574;2023-06-22T00:42:22;8.52;;;4.55;;
27428;SDS011;14881;48.092;11.574;2023-06-22T00:44:48;10.05;;;4.65;;
27428;SDS011;14881;48.092;11.574;2023-06-22T00:47:15;7.63;;;4.18;;
27428;SDS011;14881;48.092;11.574;2023-06-22T00:49:43;8.82;;;4.95;;
27428;SDS011;14881;48.092;11.574;2023-06-22T00:52:12;9.18;;;4.68;;
27428;SDS011;14881;48.092;11.574;2023-06-22T00:54:39;9.38;;;4.80;;
27428;SDS011;14881;48.092;11.574;2023-06-22T00:57:11;9.60;;;4.38;;
27428;SDS011;14881;48.092;11.574;2023-06-22T00:59:38;14.02;;;5.45;;
27428;SDS011;14881;48.092;11.574;2023-06-22T01:02:05;7.07;;;4.78;;
27428;SDS011;14881;48.092;11.574;2023-06-22T01:04:34;11.18;;;5.03;;
27428;SDS011;14881;48.092;11.574;2023-06-22T01:07:03;11.18;;;4.68;;
27428;SDS011;14881;48.092;11.574;2023-06-22T01:09:35;12.25;;;6.10;;
27428;SDS011;14881;48.092;11.574;2023-06-22T01:12:13;12.15;;;5.40;;
27428;SDS011;14881;48.092;11.574;2023-06-22T01:14:43;8.27;;;4.85;;
27428;SDS011;14881;48.092;11.574;2023-06-22T01:17:23;6.97;;;4.85;;
27428;SDS011;14881;48.092;11.574;2023-06-22T01:19:53;8.50;;;4.70;;
27428;SDS011;14881;48.092;11.574;2023-06-22T01:22:22;8.95;;;5.22;;
27428;SDS011;14881;48.092;11.574;2023-06-22T01:24:53;8.20;;;4.80;;
27428;SDS011;14881;48.092;11.574;2023-06-22T01:27:32;13.65;;;5.35;;
27428;SDS011;14881;48.092;11.574;2023-06-22T01:30:07;9.32;;;4.70;;
27428;SDS011;14881;48.092;11.574;2023-06-22T01:32:37;9.80;;;5.07;;
27428;SDS011;14881;48.092;11.574;2023-06-22T01:35:05;7.05;;;5.10;;
27428;SDS011;14881;48.092;11.574;2023-06-22T01:37:34;9.85;;;4.57;;
27428;SDS011;14881;48.092;11.574;2023-06-22T01:40:02;10.60;;;4.57;;
27428;SDS011;14881;48.092;11.574;2023-06-22T01:42:31;8.82;;;5.07;;
27428;SDS011;14881;48.092;11.574;2023-06-22T01:44:58;8.93;;;5.38;;
27428;SDS011;14881;48.092;11.574;2023-06-22T01:47:26;8.60;;;5.05;;
27428;SDS011;14881;48.092;11.574;2023-06-22T01:49:53;10.40;;;5.07;;
27428;SDS011;14881;48.092;11.574;2023-06-22T01:52:20;10.80;;;5.00;;
27428;SDS011;14881;48.092;11.574;2023-06-22T01:54:47;12.43;;;5.25;;
27428;SDS011;14881;48.092;11.574;2023-06-22T01:57:14;9.43;;;5.05;;
27428;SDS011;14881;48.092;11.574;2023-06-22T01:59:42;8.18;;;4.95;;
27428;SDS011;14881;48.092;11.574;2023-06-22T02:02:15;10.80;;;4.78;;
27428;SDS011;14881;48.092;11.574;2023-06-22T02:04:47;9.60;;;5.10;;
27428;SDS011;14881;48.092;11.574;2023-06-22T02:07:20;9.25;;;4.97;;
27428;SDS011;14881;48.092;11.574;2023-06-22T02:09:49;10.43;;;5.43;;
27428;SDS011;14881;48.092;11.574;2023-06-22T02:12:18;11.55;;;5.40;;
27428;SDS011;14881;48.092;11.574;2023-06-22T02:14:50;9.50;;;5.60;;
27428;SDS011;14881;48.092;11.574;2023-06-22T02:17:17;11.07;;;5.35;;
27428;SDS011;14881;48.092;11.574;2023-06-22T02:19:44;10.50;;;5.28;;
27428;SDS011;14881;48.092;11.574;2023-06-22T02:22:11;12.05;;;5.78;;
27428;SDS011;14881;48.092;11.574;2023-06-22T02:24:39;7.95;;;5.50;;
27428;SDS011;14881;48.092;11.574;2023-06-22T02:27:05;9.10;;;5.65;;
27428;SDS011;14881;48.092;11.574;2023-06-22T02:29:32;10.75;;;5.70;;
27428;SDS011;14881;48.092;11.574;2023-06-22T02:31:59;8.98;;;5.18;;
27428;SDS011;14881;48.092;11.574;2023-06-22T02:34:25;15.20;;;6.07;;
27428;SDS011;14881;48.092;11.574;2023-06-22T02:36:52;9.82;;;5.22;;
27428;SDS011;14881;48.092;11.574;2023-06-22T02:39:19;8.07;;;5.00;;
27428;SDS011;14881;48.092;11.574;2023-06-22T02:41:50;14.10;;;5.82;;
27428;SDS011;14881;48.092;11.574;2023-06-22T02:44:17;11.07;;;5.97;;
27428;SDS011;14881;48.092;11.574;2023-06-22T02:46:45;9.40;;;5.18;;
27428;SDS011;14881;48.092;11.574;2023-06-22T02:49:12;12.80;;;5.78;;
27428;SDS011;14881;48.092;11.574;2023-06-22T02:51:39;11.50;;;5.80;;
27428;SDS011;14881;48.092;11.574;2023-06-22T02:54:11;9.18;;;5.95;;
27428;SDS011;14881;48.092;11.574;2023-06-22T02:56:38;10.35;;;5.38;;
27428;SDS011;14881;48.092;11.574;2023-06-22T02:59:06;11.85;;;5.85;;
27428;SDS011;14881;48.092;11.574;2023-06-22T03:01:32;10.32;;;5.68;;
27428;SDS011;14881;48.092;11.574;2023-06-22T03:04:03;8.73;;;5.53;;
27428;SDS011;14881;48.092;11.574;2023-06-22T03:06:30;11.23;;;6.40;;
27428;SDS011;14881;48.092;11.574;2023-06-22T03:08:58;7.35;;;5.43;;
27428;SDS011;14881;48.092;11.574;2023-06-22T03:11:26;9.88;;;5.75;;
27428;SDS011;14881;48.092;11.574;2023-06-22T03:13:53;12.98;;;6.35;;
27428;SDS011;14881;48.092;11.574;2023-06-22T03:16:19;8.82;;;5.68;;
27428;SDS011;14881;48.092;11.574;2023-06-22T03:18:46;9.18;;;6.10;;
27428;SDS011;14881;48.092;11.574;2023-06-22T03:21:12;12.82;;;6.45;;
27428;SDS011;14881;48.092;11.574;2023-06-22T03:23:40;8.60;;;6.28;;
27428;SDS011;14881;48.092;11.574;2023-06-22T03:26:08;12.20;;;6.53;;
27428;SDS011;14881;48.092;11.574;2023-06-22T03:28:34;13.13;;;6.57;;
27428;SDS011;14881;48.092;11.574;2023-06-22T03:31:01;11.07;;;6.70;;
27428;SDS011;14881;48.092;11.574;2023-06-22T03:33:29;10.68;;;5.78;;
27428;SDS011;14881;48.092;11.574;2023-06-22T03:35:56;11.48;;;6.13;;
27428;SDS011;14881;48.092;11.574;2023-06-22T03:38:22;11.50;;;6.65;;
27428;SDS011;14881;48.092;11.574;2023-06-22T03:40:48;11.63;;;6.32;;
27428;SDS011;14881;48.092;11.574;2023-06-22T03:43:15;11.55;;;6.10;;
27428;SDS011;14881;48.092;11.574;2023-06-22T03:45:41;11.60;;;6.20;;
27428;SDS011;14881;48.092;11.574;2023-06-22T03:48:08;9.35;;;6.53;;
27428;SDS011;14881;48.092;11.574;2023-06-22T03:50:35;10.73;;;5.70;;
27428;SDS011;14881;48.092;11.574;2023-06-22T03:53:01;9.02;;;6.03;;
27428;SDS011;14881;48.092;11.574;2023-06-22T03:55:28;8.88;;;6.38;;
27428;SDS011;14881;48.092;11.574;2023-06-22T03:57:54;10.50;;;6.60;;
27428;SDS011;14881;48.092;11.574;2023-06-22T04:00:22;11.75;;;6.22;;
27428;SDS011;14881;48.092;11.574;2023-06-22T04:02:49;10.98;;;6.35;;
27428;SDS011;14881;48.092;11.574;2023-06-22T04:05:16;10.25;;;5.90;;
27428;SDS011;14881;48.092;11.574;2023-06-22T04:07:44;11.85;;;6.55;;
27428;SDS011;14881;48.092;11.574;2023-06-22T04:10:12;11.13;;;6.57;;
27428;SDS011;14881;48.092;11.574;2023-06-22T04:12:43;11.55;;;6.38;;
27428;SDS011;14881;48.092;11.574;2023-06-22T04:15:10;9.18;;;5.78;;
27428;SDS011;14881;48.092;11.574;2023-06-22T04:17:37;8.80;;;5.57;;
27428;SDS011;14881;48.092;11.574;2023-06-22T04:20:04;10.25;;;5.40;;
27428;SDS011;14881;48.092;11.574;2023-06-22T04:22:33;9.45;;;5.80;;
27428;SDS011;14881;48.092;11.574;2023-06-22T04:24:59;9.50;;;6.07;;
27428;SDS011;14881;48.092;11.574;2023-06-22T04:27:26;10.15;;;5.82;;
27428;SDS011;14881;48.092;11.574;2023-06-22T04:29:52;11.00;;;5.90;;
27428;SDS011;14881;48.092;11.574;2023-06-22T04:32:18;8.93;;;5.78;;
27428;SDS011;14881;48.092;11.574;2023-06-22T04:34:45;9.20;;;5.75;;
27428;SDS011;14881;48.092;11.574;2023-06-22T04:37:11;8.48;;;6.05;;
27428;SDS011;14881;48.092;11.574;2023-06-22T04:39:41;9.18;;;6.50;;
27428;SDS011;14881;48.092;11.574;2023-06-22T04:42:08;9.68;;;5.97;;
27428;SDS011;14881;48.092;11.574;2023-06-22T04:44:34;13.70;;;6.78;;
27428;SDS011;14881;48.092;11.574;2023-06-22T04:47:01;11.00;;;6.40;;
27428;SDS011;14881;48.092;11.574;2023-06-22T04:49:30;10.15;;;6.97;;
27428;SDS011;14881;48.092;11.574;2023-06-22T04:51:58;16.90;;;6.88;;
27428;SDS011;14881;48.092;11.574;2023-06-22T04:54:25;8.57;;;6.82;;
27428;SDS011;14881;48.092;11.574;2023-06-22T04:56:59;14.60;;;6.90;;
27428;SDS011;14881;48.092;11.574;2023-06-22T04:59:26;12.57;;;7.00;;
27428;SDS011;14881;48.092;11.574;2023-06-22T05:01:55;8.52;;;6.72;;
27428;SDS011;14881;48.092;11.574;2023-06-22T05:04:21;11.20;;;7.55;;
27428;SDS011;14881;48.092;11.574;2023-06-22T05:06:49;14.75;;;7.72;;
27428;SDS011;14881;48.092;11.574;2023-06-22T05:09:15;15.40;;;8.40;;
27428;SDS011;14881;48.092;11.574;2023-06-22T05:11:42;15.52;;;8.80;;
27428;SDS011;14881;48.092;11.574;2023-06-22T05:14:10;15.48;;;8.90;;
27428;SDS011;14881;48.092;11.574;2023-06-22T05:16:36;15.20;;;9.15;;
27428;SDS011;14881;48.092;11.574;2023-06-22T05:19:03;15.52;;;8.50;;
27428;SDS011;14881;48.092;11.574;2023-06-22T05:21:30;15.73;;;9.70;;
27428;SDS011;14881;48.092;11.574;2023-06-22T05:23:57;15.65;;;10.10;;
27428;SDS011;14881;48.092;11.574;2023-06-22T05:26:26;19.02;;;10.35;;
27428;SDS011;14881;48.092;11.574;2023-06-22T05:28:53;18.92;;;10.38;;
27428;SDS011;14881;48.092;11.574;2023-06-22T05:31:20;18.40;;;10.75;;
27428;SDS011;14881;48.092;11.574;2023-06-22T05:33:47;17.52;;;10.35;;
27428;SDS011;14881;48.092;11.574;2023-06-22T05:36:15;15.10;;;10.05;;
27428;SDS011;14881;48.092;11.574;2023-06-22T05:38:41;15.63;;;9.30;;
27428;SDS011;14881;48.092;11.574;2023-06-22T05:41:08;14.02;;;9.93;;
27428;SDS011;14881;48.092;11.574;2023-06-22T05:43:34;17.83;;;10.00;;
27428;SDS011;14881;48.092;11.574;2023-06-22T05:46:01;13.23;;;9.45;;
27428;SDS011;14881;48.092;11.574;2023-06-22T05:48:28;16.45;;;10.50;;
27428;SDS011;14881;48.092;11.574;2023-06-22T05:50:55;15.05;;;10.15;;
27428;SDS011;14881;48.092;11.574;2023-06-22T05:53:21;17.73;;;10.40;;
27428;SDS011;14881;48.092;11.574;2023-06-22T05:55:48;15.73;;;10.43;;
27428;SDS011;14881;48.092;11.574;2023-06-22T05:58:14;15.50;;;9.65;;
27428;SDS011;14881;48.092;11.574;2023-06-22T06:00:41;18.73;;;10.48;;
27428;SDS011;14881;48.092;11.574;2023-06-22T06:03:08;18.35;;;9.70;;
27428;SDS011;14881;48.092;11.574;2023-06-22T06:05:36;20.02;;;10.50;;
27428;SDS011;14881;48.092;11.574;2023-06-22T06:08:03;16.65;;;9.85;;
27428;SDS011;14881;48.092;11.574;2023-06-22T06:10:31;22.80;;;11.75;;
27428;SDS011;14881;48.092;11.574;2023-06-22T06:12:58;22.23;;;11.25;;
27428;SDS011;14881;48.092;11.574;2023-06-22T06:15:25;15.45;;;9.52;;
27428;SDS011;14881;48.092;11.574;2023-06-22T06:17:51;24.88;;;12.65;;
27428;SDS011;14881;48.092;11.574;2023-06-22T06:20:19;20.33;;;11.20;;
27428;SDS011;14881;48.092;11.574;2023-06-22T06:22:47;19.58;;;11.57;;
27428;SDS011;14881;48.092;11.574;2023-06-22T06:25:14;17.23;;;10.45;;
27428;SDS011;14881;48.092;11.574;2023-06-22T06:27:42;21.00;;;10.50;;
27428;SDS011;14881;48.092;11.574;2023-06-22T06:30:09;17.58;;;9.63;;
27428;SDS011;14881;48.092;11.574;2023-06-22T06:32:36;18.63;;;10.00;;
27428;SDS011;14881;48.092;11.574;2023-06-22T06:35:04;21.58;;;9.73;;
27428;SDS011;14881;48.092;11.574;2023-06-22T06:37:31;15.98;;;9.88;;
27428;SDS011;14881;48.092;11.574;2023-06-22T06:39:58;20.42;;;11.50;;
27428;SDS011;14881;48.092;11.574;2023-06-22T06:42:24;22.67;;;14.38;;
27428;SDS011;14881;48.092;11.574;2023-06-22T06:44:51;22.92;;;10.55;;
27428;SDS011;14881;48.092;11.574;2023-06-22T06:47:17;16.65;;;9.50;;
27428;SDS011;14881;48.092;11.574;2023-06-22T06:49:44;19.15;;;10.38;;
27428;SDS011;14881;48.092;11.574;2023-06-22T06:52:10;19.25;;;9.88;;
27428;SDS011;14881;48.092;11.574;2023-06-22T06:54:36;16.95;;;9.48;;
27428;SDS011;14881;48.092;11.574;2023-06-22T06:57:04;15.98;;;10.20;;
27428;SDS011;14881;48.092;11.574;2023-06-22T06:59:30;15.20;;;10.02;;
27428;SDS011;14881;48.092;11.574;2023-06-22T07:01:57;20.88;;;10.00;;
27428;SDS011;14881;48.092;11.574;2023-06-22T07:04:23;17.27;;;9.38;;
27428;SDS011;14881;48.092;11.574;2023-06-22T07:06:50;20.17;;;9.52;;
27428;SDS011;14881;48.092;11.574;2023-06-22T07:09:16;17.02;;;9.60;;
27428;SDS011;14881;48.092;11.574;2023-06-22T07:11:44;25.75;;;9.98;;
27428;SDS011;14881;48.092;11.574;2023-06-22T07:14:11;19.05;;;9.75;;
27428;SDS011;14881;48.092;11.574;2023-06-22T07:16:37;15.55;;;9.23;;
27428;SDS011;14881;48.092;11.574;2023-06-22T07:19:04;20.90;;;9.95;;
27428;SDS011;14881;48.092;11.574;2023-06-22T07:21:30;21.85;;;9.90;;
27428;SDS011;14881;48.092;11.574;2023-06-22T07:23:56;18.55;;;9.68;;
27428;SDS011;14881;48.092;11.574;2023-06-22T07:26:23;15.05;;;8.40;;
27428;SDS011;14881;48.092;11.574;2023-06-22T07:28:49;22.33;;;12.48;;
27428;SDS011;14881;48.092;11.574;2023-06-22T07:31:17;19.73;;;9.43;;
27428;SDS011;14881;48.092;11.574;2023-06-22T07:33:44;18.58;;;9.52;;
27428;SDS011;14881;48.092;11.574;2023-06-22T07:36:10;17.58;;;9.75;;
27428;SDS011;14881;48.092;11.574;2023-06-22T07:38:36;20.63;;;9.45;;
27428;SDS011;14881;48.092;11.574;2023-06-22T07:41:03;21.38;;;8.70;;
27428;SDS011;14881;48.092;11.574;2023-06-22T07:43:31;17.83;;;8.82;;
27428;SDS011;14881;48.092;11.574;2023-06-22T07:45:58;18.23;;;8.23;;
27428;SDS011;14881;48.092;11.574;2023-06-22T07:48:25;19.52;;;9.65;;
27428;SDS011;14881;48.092;11.574;2023-06-22T07:50:52;21.88;;;9.25;;
27428;SDS011;14881;48.092;11.574;2023-06-22T07:53:19;16.48;;;9.32;;
27428;SDS011;14881;48.092;11.574;2023-06-22T07:55:45;16.00;;;8.75;;
27428;SDS011;14881;48.092;11.574;2023-06-22T07:58:15;19.90;;;9.40;;
27428;SDS011;14881;48.092;11.574;2023-06-22T08:00:41;16.33;;;8.75;;
27428;SDS011;14881;48.092;11.574;2023-06-22T08:03:08;21.83;;;8.65;;
27428;SDS011;14881;48.092;11.574;2023-06-22T08:05:35;18.83;;;9.55;;
27428;SDS011;14881;48.092;11.574;2023-06-22T08:08:02;19.90;;;12.80;;
27428;SDS011;14881;48.092;11.574;2023-06-22T08:10:28;21.60;;;9.48;;
27428;SDS011;14881;48.092;11.574;2023-06-22T08:12:55;19.90;;;8.93;;
27428;SDS011;14881;48.092;11.574;2023-06-22T08:15:21;18.50;;;8.75;;
27428;SDS011;14881;48.092;11.574;2023-06-22T08:17:48;21.67;;;10.05;;
27428;SDS011;14881;48.092;11.574;2023-06-22T08:20:14;14.00;;;8.32;;
27428;SDS011;14881;48.092;11.574;2023-06-22T08:22:42;18.00;;;9.00;;
27428;SDS011;14881;48.092;11.574;2023-06-22T08:25:09;18.30;;;7.75;;
27428;SDS011;14881;48.092;11.574;2023-06-22T08:27:36;17.30;;;8.18;;
27428;SDS011;14881;48.092;11.574;2023-06-22T08:30:03;18.45;;;8.02;;
27428;SDS011;14881;48.092;11.574;2023-06-22T08:32:30;17.55;;;8.65;;
27428;SDS011;14881;48.092;11.574;2023-06-22T08:34:58;12.82;;;7.88;;
27428;SDS011;14881;48.092;11.574;2023-06-22T08:37:24;22.15;;;8.15;;
27428;SDS011;14881;48.092;11.574;2023-06-22T08:39:57;22.65;;;7.90;;
27428;SDS011;14881;48.092;11.574;2023-06-22T08:42:24;19.27;;;8.00;;
27428;SDS011;14881;48.092;11.574;2023-06-22T08:44:51;14.05;;;8.27;;
27428;SDS011;14881;48.092;11.574;2023-06-22T08:47:17;18.48;;;7.82;;
27428;SDS011;14881;48.092;11.574;2023-06-22T08:49:44;19.08;;;8.60;;
27428;SDS011;14881;48.092;11.574;2023-06-22T08:52:10;13.90;;;7.68;;
27428;SDS011;14881;48.092;11.574;2023-06-22T08:54:37;14.90;;;8.40;;
27428;SDS011;14881;48.092;11.574;2023-06-22T08:57:04;20.10;;;8.63;;
27428;SDS011;14881;48.092;11.574;2023-06-22T08:59:31;18.00;;;8.63;;
27428;SDS011;14881;48.092;11.574;2023-06-22T09:01:58;20.92;;;8.52;;
27428;SDS011;14881;48.092;11.574;2023-06-22T09:04:24;23.02;;;9.27;;
27428;SDS011;14881;48.092;11.574;2023-06-22T09:06:51;19.10;;;9.15;;
27428;SDS011;14881;48.092;11.574;2023-06-22T09:09:18;17.70;;;8.52;;
27428;SDS011;14881;48.092;11.574;2023-06-22T09:11:47;19.33;;;8.13;;
27428;SDS011;14881;48.092;11.574;2023-06-22T09:14:14;22.23;;;8.82;;
27428;SDS011;14881;48.092;11.574;2023-06-22T09:16:41;18.10;;;8.02;;
27428;SDS011;14881;48.092;11.574;2023-06-22T09:19:08;18.60;;;8.50;;
27428;SDS011;14881;48.092;11.574;2023-06-22T09:21:34;20.90;;;8.70;;
27428;SDS011;14881;48.092;11.574;2023-06-22T09:24:01;13.38;;;7.75;;
27428;SDS011;14881;48.092;11.574;2023-06-22T09:26:28;16.83;;;7.90;;
27428;SDS011;14881;48.092;11.574;2023-06-22T09:28:56;17.02;;;8.38;;
27428;SDS011;14881;48.092;11.574;2023-06-22T09:31:24;17.35;;;9.02;;
27428;SDS011;14881;48.092;11.574;2023-06-22T09:33:52;14.38;;;7.70;;
27428;SDS011;14881;48.092;11.574;2023-06-22T09:36:19;20.83;;;8.38;;
27428;SDS011;14881;48.092;11.574;2023-06-22T09:38:45;21.98;;;8.30;;
27428;SDS011;14881;48.092;11.574;2023-06-22T09:41:13;21.10;;;8.30;;
27428;SDS011;14881;48.092;11.574;2023-06-22T09:43:39;19.77;;;8.63;;
27428;SDS011;14881;48.092;11.574;2023-06-22T09:46:06;24.20;;;9.27;;
27428;SDS011;14881;48.092;11.574;2023-06-22T09:48:35;18.70;;;7.85;;
27428;SDS011;14881;48.092;11.574;2023-06-22T09:51:04;20.33;;;7.47;;
27428;SDS011;14881;48.092;11.574;2023-06-22T09:53:30;15.18;;;7.82;;
27428;SDS011;14881;48.092;11.574;2023-06-22T09:55:57;18.30;;;7.40;;
27428;SDS011;14881;48.092;11.574;2023-06-22T09:58:23;18.52;;;8.07;;
27428;SDS011;14881;48.092;11.574;2023-06-22T10:00:49;17.33;;;7.93;;
27428;SDS011;14881;48.092;11.574;2023-06-22T10:03:16;21.40;;;8.68;;
27428;SDS011;14881;48.092;11.574;2023-06-22T10:05:43;15.90;;;7.43;;
27428;SDS011;14881;48.092;11.574;2023-06-22T10:08:12;13.80;;;8.05;;
27428;SDS011;14881;48.092;11.574;2023-06-22T10:10:38;20.75;;;8.32;;
27428;SDS011;14881;48.092;11.574;2023-06-22T10:13:07;17.20;;;7.65;;
27428;SDS011;14881;48.092;11.574;2023-06-22T10:15:35;18.00;;;7.53;;
27428;SDS011;14881;48.092;11.574;2023-06-22T10:18:06;17.23;;;8.25;;
27428;SDS011;14881;48.092;11.574;2023-06-22T10:20:32;20.73;;;7.68;;
27428;SDS011;14881;48.092;11.574;2023-06-22T10:22:59;23.05;;;7.20;;
27428;SDS011;14881;48.092;11.574;2023-06-22T10:25:26;21.75;;;7.03;;
27428;SDS011;14881;48.092;11.574;2023-06-22T10:27:53;17.02;;;7.60;;
27428;SDS011;14881;48.092;11.574;2023-06-22T10:30:19;17.85;;;7.38;;
27428;SDS011;14881;48.092;11.574;2023-06-22T10:32:45;21.15;;;7.97;;
27428;SDS011;14881;48.092;11.574;2023-06-22T10:35:12;17.65;;;7.88;;
27428;SDS011;14881;48.092;11.574;2023-06-22T10:37:42;23.73;;;7.97;;
27428;SDS011;14881;48.092;11.574;2023-06-22T10:40:10;14.50;;;6.70;;
27428;SDS011;14881;48.092;11.574;2023-06-22T10:42:37;16.33;;;7.10;;
27428;SDS011;14881;48.092;11.574;2023-06-22T10:45:04;19.20;;;7.93;;
27428;SDS011;14881;48.092;11.574;2023-06-22T10:47:31;14.90;;;7.43;;
27428;SDS011;14881;48.092;11.574;2023-06-22T10:49:58;18.90;;;7.85;;
27428;SDS011;14881;48.092;11.574;2023-06-22T10:52:27;17.98;;;7.30;;
27428;SDS011;14881;48.092;11.574;2023-06-22T10:54:58;20.27;;;7.15;;
27428;SDS011;14881;48.092;11.574;2023-06-22T10:57:25;15.48;;;6.85;;
27428;SDS011;14881;48.092;11.574;2023-06-22T10:59:51;18.33;;;6.93;;
27428;SDS011;14881;48.092;11.574;2023-06-22T11:02:18;18.60;;;7.30;;
27428;SDS011;14881;48.092;11.574;2023-06-22T11:04:44;22.98;;;7.38;;
27428;SDS011;14881;48.092;11.574;2023-06-22T11:07:11;13.52;;;6.35;;
27428;SDS011;14881;48.092;11.574;2023-06-22T11:09:38;22.00;;;7.25;;
27428;SDS011;14881;48.092;11.574;2023-06-22T11:12:06;15.52;;;7.22;;
27428;SDS011;14881;48.092;11.574;2023-06-22T11:14:33;19.58;;;6.85;;
27428;SDS011;14881;48.092;11.574;2023-06-22T11:17:00;20.88;;;7.75;;
27428;SDS011;14881;48.092;11.574;2023-06-22T11:19:26;16.40;;;6.75;;
27428;SDS011;14881;48.092;11.574;2023-06-22T11:21:54;19.88;;;6.95;;
27428;SDS011;14881;48.092;11.574;2023-06-22T11:24:20;17.23;;;7.22;;
27428;SDS011;14881;48.092;11.574;2023-06-22T11:26:47;21.95;;;6.53;;
27428;SDS011;14881;48.092;11.574;2023-06-22T11:29:13;19.77;;;7.57;;
27428;SDS011;14881;48.092;11.574;2023-06-22T11:31:58;17.13;;;6.57;;
27428;SDS011;14881;48.092;11.574;2023-06-22T11:34:24;19.50;;;7.30;;
27428;SDS011;14881;48.092;11.574;2023-06-22T11:36:51;12.77;;;6.57;;
27428;SDS011;14881;48.092;11.574;2023-06-22T11:39:17;14.02;;;6.78;;
27428;SDS011;14881;48.092;11.574;2023-06-22T11:41:55;19.35;;;7.03;;
27428;SDS011;14881;48.092;11.574;2023-06-22T11:44:21;17.35;;;7.55;;
27428;SDS011;14881;48.092;11.574;2023-06-22T11:46:48;19.42;;;7.70;;
27428;SDS011;14881;48.092;11.574;2023-06-22T11:49:15;18.25;;;6.82;;
27428;SDS011;14881;48.092;11.574;2023-06-22T11:51:41;18.35;;;7.35;;
27428;SDS011;14881;48.092;11.574;2023-06-22T11:54:07;16.52;;;6.88;;
27428;SDS011;14881;48.092;11.574;2023-06-22T11:56:34;19.00;;;7.63;;
27428;SDS011;14881;48.092;11.574;2023-06-22T11:59:00;17.23;;;7.05;;
27428;SDS011;14881;48.092;11.574;2023-06-22T12:01:27;17.98;;;7.47;;
27428;SDS011;14881;48.092;11.574;2023-06-22T12:03:53;13.32;;;6.72;;
27428;SDS011;14881;48.092;11.574;2023-06-22T12:06:20;16.88;;;7.05;;
27428;SDS011;14881;48.092;11.574;2023-06-22T12:08:47;18.77;;;7.47;;
27428;SDS011;14881;48.092;11.574;2023-06-22T12:11:13;24.30;;;8.02;;
27428;SDS011;14881;48.092;11.574;2023-06-22T12:13:40;16.13;;;7.50;;
27428;SDS011;14881;48.092;11.574;2023-06-22T12:16:06;18.08;;;7.72;;
27428;SDS011;14881;48.092;11.574;2023-06-22T12:18:32;19.00;;;7.85;;
27428;SDS011;14881;48.092;11.574;2023-06-22T12:20:59;15.18;;;8.23;;
27428;SDS011;14881;48.092;11.574;2023-06-22T12:23:26;18.90;;;7.47;;
27428;SDS011;14881;48.092;11.574;2023-06-22T12:25:52;16.65;;;7.38;;
27428;SDS011;14881;48.092;11.574;2023-06-22T12:28:18;21.02;;;8.10;;
27428;SDS011;14881;48.092;11.574;2023-06-22T12:30:45;20.45;;;8.38;;
27428;SDS011;14881;48.092;11.574;2023-06-22T12:33:11;22.08;;;7.60;;
27428;SDS011;14881;48.092;11.574;2023-06-22T12:35:38;25.80;;;7.90;;
27428;SDS011;14881;48.092;11.574;2023-06-22T12:38:04;15.13;;;7.45;;
27428;SDS011;14881;48.092;11.574;2023-06-22T12:40:33;24.15;;;7.97;;
27428;SDS011;14881;48.092;11.574;2023-06-22T12:42:59;17.13;;;7.65;;
27428;SDS011;14881;48.092;11.574;2023-06-22T12:45:27;16.02;;;7.13;;
27428;SDS011;14881;48.092;11.574;2023-06-22T12:47:57;20.73;;;7.75;;
27428;SDS011;14881;48.092;11.574;2023-06-22T12:50:23;17.48;;;7.40;;
27428;SDS011;14881;48.092;11.574;2023-06-22T12:52:50;21.45;;;7.18;;
27428;SDS011;14881;48.092;11.574;2023-06-22T12:55:16;16.35;;;7.32;;
27428;SDS011;14881;48.092;11.574;2023-06-22T12:57:43;17.63;;;7.25;;
27428;SDS011;14881;48.092;11.574;2023-06-22T13:00:10;22.08;;;7.35;;
27428;SDS011;14881;48.092;11.574;2023-06-22T13:02:37;16.33;;;7.50;;
27428;SDS011;14881;48.092;11.574;2023-06-22T13:05:04;18.45;;;7.30;;
27428;SDS011;14881;48.092;11.574;2023-06-22T13:07:31;16.13;;;6.88;;
27428;SDS011;14881;48.092;11.574;2023-06-22T13:09:57;18.33;;;7.25;;
27428;SDS011;14881;48.092;11.574;2023-06-22T13:12:24;23.13;;;7.80;;
27428;SDS011;14881;48.092;11.574;2023-06-22T13:14:51;21.52;;;7.93;;
27428;SDS011;14881;48.092;11.574;2023-06-22T13:17:17;18.70;;;7.03;;
27428;SDS011;14881;48.092;11.574;2023-06-22T13:19:44;19.38;;;7.32;;
27428;SDS011;14881;48.092;11.574;2023-06-22T13:22:25;13.50;;;7.60;;
27428;SDS011;14881;48.092;11.574;2023-06-22T13:24:53;24.08;;;8.00;;
27428;SDS011;14881;48.092;11.574;2023-06-22T13:27:21;12.82;;;6.50;;
27428;SDS011;14881;48.092;11.574;2023-06-22T13:29:48;21.92;;;7.25;;
27428;SDS011;14881;48.092;11.574;2023-06-22T13:32:15;21.80;;;7.57;;
27428;SDS011;14881;48.092;11.574;2023-06-22T13:34:41;17.27;;;7.18;;
27428;SDS011;14881;48.092;11.574;2023-06-22T13:37:09;18.92;;;7.20;;
27428;SDS011;14881;48.092;11.574;2023-06-22T13:39:35;17.05;;;7.53;;
27428;SDS011;14881;48.092;11.574;2023-06-22T13:42:02;19.48;;;7.75;;
27428;SDS011;14881;48.092;11.574;2023-06-22T13:44:29;18.98;;;7.50;;
27428;SDS011;14881;48.092;11.574;2023-06-22T13:46:55;18.05;;;7.10;;
27428;SDS011;14881;48.092;11.574;2023-06-22T13:49:22;18.65;;;6.85;;
27428;SDS011;14881;48.092;11.574;2023-06-22T13:51:48;15.63;;;6.55;;
27428;SDS011;14881;48.092;11.574;2023-06-22T13:54:15;18.10;;;7.05;;
27428;SDS011;14881;48.092;11.574;2023-06-22T13:56:55;13.82;;;6.57;;
27428;SDS011;14881;48.092;11.574;2023-06-22T13:59:21;16.30;;;7.25;;
27428;SDS011;14881;48.092;11.574;2023-06-22T14:01:48;15.25;;;6.75;;
27428;SDS011;14881;48.092;11.574;2023-06-22T14:04:27;12.52;;;6.80;;
27428;SDS011;14881;48.092;11.574;2023-06-22T14:06:54;14.15;;;6.47;;
27428;SDS011;14881;48.092;11.574;2023-06-22T14:09:23;13.20;;;6.18;;
27428;SDS011;14881;48.092;11.574;2023-06-22T14:11:49;21.98;;;7.10;;
27428;SDS011;14881;48.092;11.574;2023-06-22T14:14:15;15.52;;;6.35;;
27428;SDS011;14881;48.092;11.574;2023-06-22T14:16:42;17.20;;;6.63;;
27428;SDS011;14881;48.092;11.574;2023-06-22T14:19:08;14.55;;;7.55;;
27428;SDS011;14881;48.092;11.574;2023-06-22T14:21:35;19.65;;;6.93;;
27428;SDS011;14881;48.092;11.574;2023-06-22T14:24:05;11.73;;;5.78;;